createdAt,value
2019-02-17T00:05:05.939Z,7.21
2019-02-17T00:11:00.946Z,7.2
2019-02-17T00:16:55.940Z,7.28
2019-02-17T00:22:50.998Z,6.88
2019-02-17T00:28:45.945Z,8.8
2019-02-17T00:34:40.945Z,7.34
2019-02-17T00:40:35.968Z,9.72
2019-02-17T00:46:30.976Z,7.35
2019-02-17T00:52:25.963Z,7.32
2019-02-17T00:58:20.985Z,6.67
2019-02-17T01:04:15.956Z,7.17
2019-02-17T01:10:10.970Z,7.24
2019-02-17T01:16:05.996Z,7.11
2019-02-17T01:22:00.974Z,7.22
2019-02-17T01:27:56.033Z,7.32
2019-02-17T01:33:50.977Z,7.28
2019-02-17T01:39:46.005Z,7.97
2019-02-17T01:45:41.005Z,6.92
2019-02-17T01:51:36.003Z,7.37
2019-02-17T01:57:30.984Z,7.28
2019-02-17T02:03:25.976Z,6.53
2019-02-17T02:09:20.989Z,7.27
2019-02-17T02:15:16.043Z,8.82
2019-02-17T02:21:11.028Z,7.23
2019-02-17T02:27:06.027Z,6.71
2019-02-17T02:33:01.040Z,7
2019-02-17T02:38:56.014Z,6.82
2019-02-17T02:44:51.012Z,8.33
2019-02-17T02:50:46.029Z,7.77
2019-02-17T02:56:41.012Z,7.38
2019-02-17T03:02:36.020Z,7.16
2019-02-17T03:08:31.031Z,7.56
2019-02-17T03:14:26.034Z,7.24
2019-02-17T03:20:21.054Z,8.95
2019-02-17T03:26:16.039Z,6.95
2019-02-17T03:32:11.029Z,7.16
2019-02-17T03:38:06.033Z,8.19
2019-02-17T03:44:01.061Z,7.43
2019-02-17T03:49:56.040Z,7.55
2019-02-17T03:55:51.045Z,9.14
2019-02-17T04:01:46.087Z,8.68
2019-02-17T04:07:41.084Z,7.68
2019-02-17T04:13:36.094Z,7.33
2019-02-17T04:19:31.059Z,7.09
2019-02-17T04:25:26.063Z,7.33
2019-02-17T04:31:21.070Z,6.6
2019-02-17T04:37:16.074Z,7.17
2019-02-17T04:43:11.058Z,6.89
2019-02-17T04:49:06.109Z,6.52
2019-02-17T04:55:01.080Z,6.94
2019-02-17T05:00:56.093Z,7.04
2019-02-17T05:06:51.055Z,6.95
2019-02-17T05:12:46.102Z,6.71
2019-02-17T05:18:41.113Z,7.19
2019-02-17T05:24:36.084Z,7.25
2019-02-17T05:30:31.117Z,7.44
2019-02-17T05:36:26.074Z,7.53
2019-02-17T05:42:21.093Z,7.62
2019-02-17T05:48:16.118Z,7.51
2019-02-17T05:54:11.117Z,8.63
2019-02-17T06:00:06.130Z,7.9
2019-02-17T06:06:01.103Z,7.3
2019-02-17T06:11:56.111Z,7.7
2019-02-17T06:17:51.085Z,7.8
2019-02-17T06:23:46.130Z,7.6
2019-02-17T06:29:41.112Z,7.08
2019-02-17T06:35:36.119Z,7.98
2019-02-17T06:41:31.111Z,8.72
2019-02-17T06:47:26.139Z,6.95
2019-02-17T06:53:21.128Z,7.43
2019-02-17T06:59:16.187Z,7.12
2019-02-17T07:05:11.173Z,7.86
2019-02-17T07:11:06.127Z,8.63
2019-02-17T07:17:01.138Z,8.03
2019-02-17T07:22:56.123Z,10.43
2019-02-17T07:28:51.129Z,11.9
2019-02-17T07:34:46.137Z,13.07
2019-02-17T07:40:41.212Z,14.45
2019-02-17T07:46:36.153Z,14.19
2019-02-17T07:52:31.164Z,15.95
2019-02-17T07:58:26.159Z,16.02
2019-02-17T08:04:21.170Z,15.75
2019-02-17T08:10:16.172Z,14.1
2019-02-17T08:16:11.179Z,12.41
2019-02-17T08:22:06.174Z,12.43
2019-02-17T08:28:01.231Z,13.83
2019-02-17T08:33:56.171Z,13.33
2019-02-17T08:39:51.203Z,14.31
2019-02-17T08:45:46.178Z,14.76
2019-02-17T08:51:41.227Z,15.08
2019-02-17T08:57:37.945Z,13.77
2019-02-17T09:03:31.215Z,14.51
2019-02-17T09:09:26.199Z,14.67
2019-02-17T09:15:21.239Z,15.31
2019-02-17T09:21:16.201Z,16.51
2019-02-17T09:27:11.220Z,16.52
2019-02-17T09:33:06.226Z,15.44
2019-02-17T09:39:01.241Z,16.63
2019-02-17T09:44:56.210Z,16.9
2019-02-17T09:50:51.219Z,17.13
2019-02-17T09:56:46.212Z,17.24
2019-02-17T10:02:41.214Z,17.64
2019-02-17T10:08:36.242Z,16.7
2019-02-17T10:14:31.239Z,15.89
2019-02-17T10:20:26.224Z,14.11
2019-02-17T10:26:21.256Z,13.53
2019-02-17T10:32:16.288Z,13.63
2019-02-17T10:38:11.241Z,15.06
2019-02-17T10:44:06.265Z,14.73
2019-02-17T10:50:01.242Z,15.72
2019-02-17T10:55:56.261Z,15.26
2019-02-17T11:01:51.319Z,14.32
2019-02-17T11:07:46.270Z,15.85
2019-02-17T11:13:41.273Z,14.14
2019-02-17T11:19:36.271Z,15.09
2019-02-17T11:31:26.294Z,15.73
2019-02-17T11:37:21.963Z,15.67
2019-02-17T11:43:16.290Z,16.61
2019-02-17T11:49:11.285Z,18.1
2019-02-17T11:55:06.280Z,16.27
2019-02-17T12:01:01.373Z,17.08
2019-02-17T12:06:56.331Z,18.19
2019-02-17T12:12:51.305Z,20.37
2019-02-17T12:18:46.324Z,20.36
2019-02-17T12:24:41.348Z,19.8
2019-02-17T12:30:36.301Z,21.64
2019-02-17T12:36:31.333Z,20.23
2019-02-17T12:42:26.337Z,21.16
2019-02-17T12:48:21.316Z,23.41
2019-02-17T12:54:16.365Z,21.7
2019-02-17T13:00:11.359Z,17.31
2019-02-17T13:06:06.347Z,19.64
2019-02-17T13:12:01.360Z,18.93
2019-02-17T13:17:56.342Z,18.23
2019-02-17T13:23:51.350Z,17.82
2019-02-17T13:29:46.354Z,16.79
2019-02-17T13:35:41.400Z,16.53
2019-02-17T13:41:36.362Z,17.02
2019-02-17T13:47:31.352Z,17.52
2019-02-17T13:53:28.465Z,16.85
2019-02-17T13:59:39.630Z,18.07
2019-02-17T14:05:16.369Z,18.17
2019-02-17T14:11:11.415Z,19.69
2019-02-17T14:17:06.379Z,18.38
2019-02-17T14:23:01.374Z,17.86
2019-02-17T14:28:56.413Z,22.43
2019-02-17T14:34:51.384Z,19.21
2019-02-17T14:40:46.461Z,18.99
2019-02-17T14:46:41.390Z,19.02
2019-02-17T14:52:36.398Z,20.28
2019-02-17T14:58:31.408Z,19.37
2019-02-17T15:04:26.397Z,19.07
2019-02-17T15:10:21.415Z,18.37
2019-02-17T15:16:16.475Z,19.67
2019-02-17T15:22:11.430Z,18.6
2019-02-17T15:28:06.431Z,21.45
2019-02-17T15:34:01.431Z,19.19
2019-02-17T15:39:56.454Z,19.23
2019-02-17T15:45:51.446Z,18.86
2019-02-17T15:51:46.432Z,20.36
2019-02-17T15:57:41.483Z,20.13
2019-02-17T16:03:36.481Z,24.87
2019-02-17T16:09:31.479Z,28.74
2019-02-17T16:15:26.460Z,29.42
2019-02-17T16:21:23.502Z,31.09
2019-02-17T16:27:16.476Z,30.66
2019-02-17T16:33:11.484Z,30.67
2019-02-17T16:39:06.538Z,31.93
2019-02-17T16:45:01.508Z,29.26
2019-02-17T16:50:56.499Z,28.55
2019-02-17T16:56:51.501Z,26.04
2019-02-17T17:02:46.546Z,27.38
2019-02-17T17:08:41.491Z,29.88
2019-02-17T17:14:36.510Z,32.98
2019-02-17T17:20:31.485Z,31.06
2019-02-17T17:26:26.502Z,33.03
2019-02-17T17:32:21.530Z,31.17
2019-02-17T17:38:16.513Z,36.25
2019-02-17T17:44:11.520Z,49.63
2019-02-17T17:50:06.501Z,103.78
2019-02-17T17:56:01.539Z,57.24
2019-02-17T18:01:56.535Z,58.37
2019-02-17T18:07:51.521Z,42
2019-02-17T18:13:46.533Z,34.41
2019-02-17T18:19:41.530Z,33.7
2019-02-17T18:25:36.551Z,33.99
2019-02-17T18:31:31.619Z,39.32
2019-02-17T18:37:26.542Z,32.43
2019-02-17T18:43:21.553Z,34.92
2019-02-17T18:49:16.546Z,44.82
2019-02-17T18:55:11.571Z,42.12
2019-02-17T19:01:06.601Z,33.18
2019-02-17T19:07:01.573Z,31.42
2019-02-17T19:12:56.560Z,30.99
2019-02-17T19:18:51.608Z,39.25
2019-02-17T19:24:46.654Z,36.04
2019-02-17T19:30:41.621Z,31.05
2019-02-17T19:36:36.573Z,28.12
2019-02-17T19:42:31.570Z,28.03
2019-02-17T19:48:26.593Z,27.91
2019-02-17T19:54:21.642Z,27
2019-02-17T20:00:16.579Z,27.44
2019-02-17T20:06:11.608Z,27.38
2019-02-17T20:12:06.597Z,25.05
2019-02-17T20:18:01.607Z,22.64
2019-02-17T20:23:56.634Z,23.15
2019-02-17T20:29:51.634Z,23.54
2019-02-17T20:35:46.602Z,23.77
2019-02-17T20:41:41.604Z,23.1
2019-02-17T20:47:36.651Z,23.69
2019-02-17T20:53:31.634Z,23.19
2019-02-17T20:59:26.619Z,25.13
2019-02-17T21:05:21.611Z,23.58
2019-02-17T21:11:16.682Z,29.32
2019-02-17T21:17:11.615Z,23.85
2019-02-17T21:23:06.643Z,30.13
2019-02-17T21:29:01.654Z,25.33
2019-02-17T21:34:56.655Z,24.44
2019-02-17T21:40:51.638Z,24.62
2019-02-17T21:46:46.653Z,24.59
2019-02-17T21:52:42.068Z,24.25
2019-02-17T21:58:36.676Z,26.04
2019-02-17T22:04:31.660Z,24.99
2019-02-17T22:10:26.665Z,25.3
2019-02-17T22:16:21.640Z,25.21
2019-02-17T22:22:16.675Z,28.58
2019-02-17T22:28:11.658Z,25.98
2019-02-17T22:34:06.698Z,29.33
2019-02-17T22:40:01.695Z,31.47
2019-02-17T22:45:56.675Z,32.93
2019-02-17T22:51:51.677Z,32.96
2019-02-17T22:57:46.673Z,29.07
2019-02-17T23:03:41.729Z,26.91
2019-02-17T23:09:36.688Z,29.19
2019-02-17T23:15:31.693Z,30.68
2019-02-17T23:21:26.689Z,29.62
2019-02-17T23:27:21.724Z,27.97
2019-02-17T23:33:16.707Z,27.88
2019-02-17T23:39:11.699Z,28.94
2019-02-17T23:45:06.694Z,30.29
2019-02-17T23:51:01.721Z,26.28
2019-02-17T23:56:56.741Z,27.03
